createdAt,value
2019-04-23T00:00:17.050Z,9.50
2019-04-23T00:03:13.324Z,10.13
2019-04-23T00:12:49.584Z,9.37
2019-04-23T00:15:57.076Z,10.23
2019-04-23T00:19:13.650Z,10.50
2019-04-23T00:22:37.049Z,10.60
2019-04-23T00:29:00.564Z,10.27
2019-04-23T00:32:04.821Z,10.27
2019-04-23T00:38:14.035Z,10.17
2019-04-23T00:41:16.576Z,10.70
2019-04-23T00:44:26.738Z,11.00
2019-04-23T00:47:32.990Z,10.60
2019-04-23T00:50:38.533Z,11.10
2019-04-23T00:53:32.650Z,10.67
2019-04-23T00:56:46.210Z,10.57
2019-04-23T00:59:57.326Z,10.00
2019-04-23T01:02:58.964Z,10.63
2019-04-23T01:06:02.626Z,10.27
2019-04-23T01:09:10.430Z,11.10
2019-04-23T01:12:18.999Z,10.57
2019-04-23T01:15:23.994Z,11.27
2019-04-23T01:21:15.813Z,11.15
2019-04-23T01:24:38.499Z,10.70
2019-04-23T01:28:07.798Z,10.80
2019-04-23T01:34:25.712Z,10.90
2019-04-23T01:37:30.362Z,11.40
2019-04-23T01:43:42.819Z,10.60
2019-04-23T01:46:51.831Z,12.20
2019-04-23T01:50:03.103Z,11.13
2019-04-23T01:53:02.855Z,10.57
2019-04-23T01:56:09.142Z,12.17
2019-04-23T01:59:11.375Z,11.00
2019-04-23T02:02:12.349Z,10.87
2019-04-23T02:05:24.510Z,12.03
2019-04-23T02:08:20.744Z,11.33
2019-04-23T02:11:49.099Z,10.85
2019-04-23T02:14:36.470Z,12.17
2019-04-23T02:17:47.240Z,12.33
2019-04-23T02:20:47.862Z,12.60
2019-04-23T02:24:00.111Z,12.03
2019-04-23T02:27:12.154Z,11.87
2019-04-23T02:30:49.018Z,12.10
2019-04-23T02:33:34.470Z,12.77
2019-04-23T02:36:32.493Z,12.40
2019-04-23T02:39:53.618Z,11.60
2019-04-23T02:45:56.431Z,12.53
2019-04-23T02:48:56.482Z,12.40
2019-04-23T02:52:08.036Z,11.87
2019-04-23T02:55:09.188Z,12.60
2019-04-23T02:58:21.378Z,11.63
2019-04-23T03:04:29.112Z,12.30
2019-04-23T03:07:32.956Z,12.03
2019-04-23T03:10:30.781Z,13.10
2019-04-23T03:13:51.164Z,12.90
2019-04-23T03:17:04.285Z,13.03
2019-04-23T03:23:31.904Z,13.57
2019-04-23T03:26:47.668Z,12.70
2019-04-23T03:32:51.962Z,13.17
2019-04-23T03:38:55.584Z,12.73
2019-04-23T03:42:02.024Z,12.90
2019-04-23T03:45:16.747Z,12.77
2019-04-23T03:48:16.802Z,13.43
2019-04-23T03:51:16.364Z,11.83
2019-04-23T03:54:36.128Z,11.93
2019-04-23T04:06:48.079Z,11.47
2019-04-23T04:12:56.914Z,11.47
2019-04-23T04:16:00.942Z,11.20
2019-04-23T04:19:23.023Z,11.10
2019-04-23T04:22:28.398Z,11.73
2019-04-23T04:25:26.925Z,11.60
2019-04-23T04:28:31.087Z,10.87
2019-04-23T04:31:48.432Z,10.83
2019-04-23T04:40:55.302Z,10.67
2019-04-23T04:46:59.793Z,10.47
2019-04-23T04:50:14.864Z,10.40
2019-04-23T04:53:26.966Z,10.50
2019-04-23T04:59:22.837Z,10.53
2019-04-23T05:02:37.834Z,10.58
2019-04-23T05:11:54.155Z,10.47
2019-04-23T05:14:56.840Z,10.63
2019-04-23T05:18:17.406Z,10.17
2019-04-23T05:21:12.038Z,10.13
2019-04-23T05:24:15.010Z,11.10
2019-04-23T05:27:19.287Z,10.23
2019-04-23T05:33:34.148Z,10.90
2019-04-23T05:36:41.511Z,10.43
2019-04-23T05:39:38.131Z,10.50
2019-04-23T05:42:45.729Z,10.23
2019-04-23T05:46:16.053Z,10.73
2019-04-23T05:48:59.532Z,10.33
2019-04-23T05:52:00.335Z,10.97
2019-04-23T05:55:08.716Z,9.80
2019-04-23T06:01:49.888Z,9.90
2019-04-23T06:04:39.003Z,9.73
2019-04-23T06:07:43.923Z,9.90
2019-04-23T06:10:48.156Z,10.67
2019-04-23T06:14:02.046Z,9.00
2019-04-23T06:17:03.845Z,9.88
2019-04-23T06:23:18.095Z,10.77
2019-04-23T06:26:30.294Z,9.03
2019-04-23T06:29:25.637Z,10.53
2019-04-23T06:35:41.288Z,9.27
2019-04-23T06:38:47.869Z,9.83
2019-04-23T06:41:49.837Z,8.88
2019-04-23T06:48:07.567Z,9.75
2019-04-23T06:54:16.485Z,8.90
2019-04-23T06:57:17.917Z,9.20
2019-04-23T07:00:21.376Z,9.03
2019-04-23T07:03:31.220Z,8.90
2019-04-23T07:06:38.462Z,9.67
2019-04-23T07:09:35.261Z,9.20
2019-04-23T07:12:47.111Z,9.50
2019-04-23T07:18:54.559Z,9.00
2019-04-23T07:22:06.384Z,9.47
2019-04-23T07:25:17.686Z,8.50
2019-04-23T07:28:13.227Z,8.77
2019-04-23T07:31:22.866Z,9.47
2019-04-23T07:34:18.058Z,8.60
2019-04-23T07:40:40.619Z,9.63
2019-04-23T07:43:55.801Z,8.97
2019-04-23T07:47:51.960Z,8.50
2019-04-23T07:50:44.139Z,8.93
2019-04-23T07:53:48.374Z,9.40
2019-04-23T07:56:52.789Z,9.50
2019-04-23T08:00:07.889Z,9.23
2019-04-23T08:03:10.495Z,8.20
2019-04-23T08:06:00.650Z,10.30
2019-04-23T08:09:34.225Z,8.90
2019-04-23T08:15:32.765Z,8.47
2019-04-23T08:18:36.258Z,8.63
2019-04-23T08:21:32.081Z,8.13
2019-04-23T08:24:55.582Z,8.00
2019-04-23T08:28:12.041Z,7.77
2019-04-23T08:31:07.809Z,8.43
2019-04-23T08:50:15.398Z,7.93
2019-04-23T08:53:17.898Z,7.90
2019-04-23T08:56:08.705Z,8.10
2019-04-23T08:59:28.112Z,8.50
2019-04-23T09:02:34.018Z,7.90
2019-04-23T09:05:32.329Z,7.03
2019-04-23T09:08:32.439Z,7.28
2019-04-23T09:14:44.824Z,8.00
2019-04-23T09:20:48.180Z,7.43
2019-04-23T09:24:00.657Z,7.43
2019-04-23T09:27:16.013Z,7.60
2019-04-23T09:30:14.628Z,7.47
2019-04-23T09:37:15.225Z,6.50
2019-04-23T09:40:31.483Z,6.50
2019-04-23T09:43:49.573Z,7.33
2019-04-23T09:50:15.664Z,7.50
2019-04-23T09:53:25.328Z,7.40
2019-04-23T09:56:22.490Z,7.30
2019-04-23T09:59:41.328Z,8.03
2019-04-23T10:02:28.144Z,7.28
2019-04-23T10:05:29.179Z,7.40
2019-04-23T10:08:27.030Z,7.30
2019-04-23T10:11:26.195Z,7.17
2019-04-23T10:14:30.447Z,7.33
2019-04-23T10:17:36.112Z,7.55
2019-04-23T10:20:40.728Z,6.67
2019-04-23T10:23:45.236Z,6.50
2019-04-23T10:26:50.397Z,7.57
2019-04-23T10:29:56.074Z,7.10
2019-04-23T10:33:01.467Z,7.78
2019-04-23T10:36:10.944Z,6.60
2019-04-23T10:39:17.824Z,7.93
2019-04-23T10:42:18.146Z,7.30
2019-04-23T10:46:07.939Z,6.97
2019-04-23T10:52:37.443Z,7.03
2019-04-23T10:58:45.558Z,5.93
2019-04-23T11:02:09.932Z,7.07
2019-04-23T11:05:17.957Z,6.70
2019-04-23T11:08:03.525Z,7.23
2019-04-23T11:11:15.220Z,7.30
2019-04-23T11:17:33.021Z,6.50
2019-04-23T11:23:34.841Z,7.70
2019-04-23T11:26:46.129Z,6.80
2019-04-23T11:29:57.456Z,7.80
2019-04-23T11:33:02.761Z,6.55
2019-04-23T11:36:19.354Z,7.20
2019-04-23T11:38:58.626Z,6.50
2019-04-23T11:50:56.016Z,7.00
2019-04-23T11:54:30.629Z,7.00
2019-04-23T11:57:42.527Z,7.43
2019-04-23T12:04:26.650Z,7.43
2019-04-23T12:11:08.547Z,7.00
2019-04-23T12:14:21.970Z,7.27
2019-04-23T12:17:18.632Z,7.33
2019-04-23T12:20:22.980Z,7.60
2019-04-23T12:23:41.248Z,7.50
2019-04-23T12:26:45.535Z,7.07
2019-04-23T12:29:44.557Z,7.80
2019-04-23T12:33:03.138Z,7.00
2019-04-23T12:36:10.276Z,7.20
2019-04-23T12:39:12.418Z,7.47
2019-04-23T12:42:34.469Z,7.23
2019-04-23T12:45:34.013Z,7.80
2019-04-23T12:48:33.841Z,7.20
2019-04-23T12:51:35.306Z,7.10
2019-04-23T12:54:51.086Z,7.83
2019-04-23T12:57:42.311Z,7.80
2019-04-23T13:00:44.292Z,8.73
2019-04-23T13:03:45.858Z,7.95
2019-04-23T13:07:03.235Z,7.40
2019-04-23T13:10:10.268Z,7.87
2019-04-23T13:16:19.574Z,7.67
2019-04-23T13:19:36.315Z,7.30
2019-04-23T13:22:31.565Z,7.07
2019-04-23T13:29:05.076Z,8.13
2019-04-23T13:32:09.635Z,7.20
2019-04-23T13:35:31.432Z,8.47
2019-04-23T13:38:37.946Z,7.43
2019-04-23T13:41:20.158Z,10.00
2019-04-23T13:44:36.548Z,7.37
2019-04-23T13:47:46.928Z,8.37
2019-04-23T13:53:58.977Z,7.70
2019-04-23T13:57:25.756Z,7.30
2019-04-23T13:59:56.116Z,7.97
2019-04-23T14:03:04.413Z,7.73
2019-04-23T14:06:23.083Z,8.07
2019-04-23T14:09:20.018Z,8.63
2019-04-23T14:12:22.613Z,8.30
2019-04-23T14:15:40.712Z,7.70
2019-04-23T14:18:52.168Z,7.87
2019-04-23T14:21:37.000Z,7.58
2019-04-23T14:28:01.262Z,8.23
2019-04-23T14:31:00.140Z,9.20
2019-04-23T14:34:04.968Z,8.45
2019-04-23T14:37:14.117Z,9.33
2019-04-23T14:40:35.564Z,8.20
2019-04-23T14:43:25.622Z,8.57
2019-04-23T14:49:54.698Z,8.93
2019-04-23T14:52:50.497Z,8.25
2019-04-23T14:56:13.212Z,8.40
2019-04-23T14:59:04.713Z,8.88
2019-04-23T15:02:05.552Z,8.37
2019-04-23T15:05:15.485Z,9.57
2019-04-23T15:08:28.622Z,8.77
2019-04-23T15:17:34.674Z,10.60
2019-04-23T15:20:53.315Z,8.57
2019-04-23T15:24:00.831Z,9.37
2019-04-23T15:29:52.596Z,8.70
2019-04-23T15:33:22.346Z,9.37
2019-04-23T15:36:32.530Z,8.90
2019-04-23T15:39:24.290Z,9.63
2019-04-23T15:42:32.929Z,8.97
2019-04-23T15:45:28.544Z,9.50
2019-04-23T15:48:42.689Z,10.30
2019-04-23T15:52:00.371Z,10.07
2019-04-23T15:54:52.844Z,9.47
2019-04-23T15:58:05.059Z,9.97
2019-04-23T16:01:26.514Z,10.00
2019-04-23T16:03:53.397Z,9.80
2019-04-23T16:06:57.264Z,10.47
2019-04-23T16:10:28.485Z,10.10
2019-04-23T16:13:40.596Z,10.10
2019-04-23T16:16:46.302Z,10.27
2019-04-23T16:23:09.506Z,9.80
2019-04-23T16:26:14.280Z,9.93
2019-04-23T16:36:01.495Z,11.20
2019-04-23T16:39:04.418Z,10.60
2019-04-23T16:42:10.106Z,10.87
2019-04-23T16:45:14.854Z,10.38
2019-04-23T16:48:35.386Z,11.33
2019-04-23T16:51:32.744Z,11.20
2019-04-23T16:54:31.339Z,10.80
2019-04-23T20:42:48.133Z,6.30
2019-04-23T20:45:56.300Z,6.37
2019-04-23T20:48:53.673Z,10.37
2019-04-23T20:52:04.813Z,7.13
2019-04-23T20:58:13.873Z,6.50
2019-04-23T21:01:48.177Z,10.93
2019-04-23T21:05:01.476Z,6.67
2019-04-23T21:07:57.973Z,5.63
2019-04-23T21:10:55.700Z,5.87
2019-04-23T21:14:15.317Z,6.10
2019-04-23T21:17:15.258Z,6.13
2019-04-23T21:20:30.112Z,5.83
2019-04-23T21:23:17.692Z,6.97
2019-04-23T21:26:32.470Z,5.30
2019-04-23T21:29:44.906Z,5.93
2019-04-23T21:32:59.027Z,5.27
2019-04-23T21:42:41.175Z,5.63
2019-04-23T21:45:54.566Z,5.33
2019-04-23T21:51:56.463Z,5.53
2019-04-23T21:54:56.907Z,6.03
2019-04-23T21:58:07.254Z,5.10
2019-04-23T22:01:24.352Z,5.07
2019-04-23T22:07:35.862Z,5.33
2019-04-23T22:10:39.841Z,4.93
2019-04-23T22:13:51.709Z,5.50
2019-04-23T22:16:53.919Z,4.83
2019-04-23T22:19:57.918Z,6.03
2019-04-23T22:23:03.805Z,4.70
2019-04-23T22:26:07.916Z,5.50
2019-04-23T22:32:02.417Z,5.33
2019-04-23T22:35:10.614Z,4.97
2019-04-23T22:38:33.836Z,5.33
2019-04-23T22:41:37.177Z,4.97
2019-04-23T22:44:32.572Z,5.33
2019-04-23T22:47:42.952Z,4.90
2019-04-23T22:50:59.323Z,5.47
2019-04-23T22:53:58.636Z,4.50
2019-04-23T23:00:13.069Z,4.33
2019-04-23T23:03:11.666Z,4.40
2019-04-23T23:06:21.043Z,4.53
2019-04-23T23:09:28.753Z,4.40
2019-04-23T23:12:43.514Z,4.75
2019-04-23T23:15:44.197Z,4.70
2019-04-23T23:18:44.916Z,4.17
2019-04-23T23:22:00.287Z,4.50
2019-04-23T23:24:56.439Z,4.53
2019-04-23T23:28:09.687Z,4.57
2019-04-23T23:34:09.428Z,4.77
2019-04-23T23:37:12.800Z,4.67
2019-04-23T23:40:23.793Z,4.50
2019-04-23T23:43:29.706Z,4.70
2019-04-23T23:52:53.583Z,4.20
2019-04-23T23:55:58.913Z,4.00
2019-04-23T23:59:04.238Z,4.50
